createdAt,value
2022-09-10T00:03:39.642Z,2.8160535117056855
2022-09-10T00:10:05.303Z,2.5618729096989967
2022-09-10T00:16:31.448Z,2.2474916387959865
2022-09-10T00:24:54.216Z,2.4347826086956523
2022-09-10T00:31:19.555Z,2.4414715719063547
2022-09-10T00:37:45.257Z,2.531772575250836
2022-09-10T00:44:11.126Z,2.9331103678929766
2022-09-10T00:50:36.858Z,2.9163879598662206
2022-09-10T00:57:01.972Z,2.7759197324414715
2022-09-10T01:03:27.024Z,2.5451505016722407
2022-09-10T01:09:53.122Z,2.839464882943144
2022-09-10T01:16:18.813Z,2.9264214046822743
2022-09-10T01:22:44.659Z,2.9966555183946486
2022-09-10T01:34:14.967Z,3.0836120401337794
2022-09-10T01:43:01.802Z,3.0501672240802677
2022-09-10T01:49:27.985Z,3.31438127090301
2022-09-10T01:55:54.482Z,3.3377926421404682
2022-09-10T02:02:20.034Z,3.250836120401338
2022-09-10T02:08:46.071Z,3.180602006688963
2022-09-10T02:15:11.731Z,3.4013377926421406
2022-09-10T02:21:36.750Z,3.749163879598662
2022-09-10T02:28:10.880Z,3.4414715719063547
2022-09-10T02:40:19.765Z,4.294314381270903
2022-09-10T02:46:44.688Z,3.722408026755853
2022-09-10T02:56:12.425Z,3.7725752508361206
2022-09-10T03:05:02.892Z,4.585284280936455
2022-09-10T03:11:28.514Z,4.026755852842809
2022-09-10T03:17:54.599Z,4.377926421404682
2022-09-10T03:24:29.348Z,4.926421404682274
2022-09-10T03:30:56.171Z,4.7157190635451505
2022-09-10T03:37:21.576Z,4.722408026755853
2022-09-10T03:43:47.365Z,4.956521739130435
2022-09-10T03:50:13.521Z,5.117056856187291
2022-09-10T03:56:39.465Z,6.033444816053512
2022-09-10T04:03:25.748Z,5.678929765886288
2022-09-10T04:09:51.353Z,5.916387959866221
2022-09-10T04:16:17.080Z,6.11371237458194
2022-09-10T04:22:42.597Z,6.404682274247492
2022-09-10T04:29:15.744Z,6.648829431438127
2022-09-10T04:41:39.757Z,7.60200668896321
2022-09-10T04:48:07.220Z,8.050167224080267
2022-09-10T04:54:32.769Z,8.538461538461538
2022-09-10T05:00:58.537Z,8.852842809364548
2022-09-10T05:10:17.149Z,8.953177257525084
2022-09-10T05:16:42.931Z,10.605351170568563
2022-09-10T05:23:15.295Z,10.20401337792642
2022-09-10T05:29:42.522Z,8.809364548494983
2022-09-10T05:36:09.566Z,8.732441471571907
2022-09-10T05:42:35.625Z,8.505016722408026
2022-09-10T05:51:22.020Z,8.765886287625419
2022-09-10T06:03:18.498Z,9.581939799331103
2022-09-10T06:09:44.586Z,9.214046822742475
2022-09-10T06:16:10.926Z,9.665551839464882
2022-09-10T06:22:38.436Z,9.19732441471572
2022-09-10T06:32:02.053Z,9.612040133779264
2022-09-10T06:38:30.478Z,8.96989966555184
2022-09-10T06:45:32.643Z,9.34448160535117
2022-09-10T06:51:58.419Z,9.321070234113712
2022-09-10T07:04:52.576Z,9.304347826086957
2022-09-10T07:12:41.844Z,9.909698996655518
2022-09-10T07:19:13.120Z,10.123745819397993
2022-09-10T07:25:54.608Z,10.274247491638796
2022-09-10T07:32:19.810Z,10.247491638795987
2022-09-10T07:38:45.373Z,9.919732441471572
2022-09-10T07:51:51.130Z,10.568561872909699
2022-09-10T07:58:18.739Z,10.929765886287626
2022-09-10T08:04:45.310Z,11.0
2022-09-10T08:11:12.496Z,11.100334448160535
2022-09-10T08:17:39.102Z,11.190635451505017
2022-09-10T08:24:14.708Z,11.94314381270903
2022-09-10T08:30:40.481Z,12.127090301003344
2022-09-10T08:42:57.494Z,12.555183946488294
2022-09-10T08:49:23.677Z,12.508361204013378
2022-09-10T08:55:52.928Z,12.88628762541806
2022-09-10T09:22:00.336Z,14.51505016722408
2022-09-10T09:28:37.138Z,14.695652173913043
2022-09-10T09:35:03.237Z,14.11371237458194
2022-09-10T09:48:36.814Z,15.474916387959865
2022-09-10T09:59:15.197Z,15.488294314381271
2022-09-10T10:05:40.483Z,16.80267558528428
2022-09-10T10:12:52.561Z,16.872909698996654
2022-09-10T10:19:17.864Z,16.401337792642142
2022-09-10T10:31:25.124Z,15.270903010033445
2022-09-10T10:37:56.355Z,15.57190635451505
2022-09-10T10:44:21.832Z,15.538461538461538
2022-09-10T10:56:20.571Z,13.702341137123746
2022-09-10T11:07:10.022Z,13.22742474916388
2022-09-10T11:13:36.697Z,13.040133779264215
2022-09-10T11:20:24.222Z,11.749163879598662
2022-09-10T11:27:07.696Z,11.62876254180602
2022-09-10T11:37:45.997Z,11.939799331103679
2022-09-10T11:44:13.823Z,11.324414715719064
2022-09-10T11:50:43.708Z,10.959866220735785
2022-09-10T11:57:17.286Z,11.270903010033445
2022-09-10T12:03:49.375Z,11.464882943143813
2022-09-10T12:10:17.042Z,11.953177257525084
2022-09-10T12:16:42.764Z,11.127090301003344
2022-09-10T12:23:10.239Z,10.31772575250836
2022-09-10T12:29:54.551Z,9.672240802675585
2022-09-10T12:39:59.354Z,10.438127090301004
2022-09-10T12:46:23.910Z,10.478260869565217
2022-09-10T12:52:48.388Z,10.167224080267559
2022-09-10T12:59:15.383Z,8.993311036789297
2022-09-10T13:06:35.160Z,9.434782608695652
2022-09-10T13:12:57.856Z,8.668896321070234
2022-09-10T13:19:21.092Z,7.60200668896321
2022-09-10T13:33:43.027Z,7.317725752508361
2022-09-10T13:40:05.825Z,6.802675585284281
2022-09-10T13:46:29.847Z,9.775919732441471
2022-09-10T13:55:01.579Z,10.498327759197325
2022-09-10T14:01:24.974Z,10.224080267558529
2022-09-10T14:07:47.806Z,10.160535117056856
2022-09-10T14:14:10.729Z,10.150501672240802
2022-09-10T14:20:31.784Z,9.735785953177258
2022-09-10T14:36:32.375Z,8.555183946488294
2022-09-10T14:42:54.471Z,8.25418060200669
2022-09-10T14:49:15.939Z,8.431438127090301
2022-09-10T14:56:04.256Z,9.14046822742475
2022-09-10T15:02:27.560Z,9.474916387959865
2022-09-10T15:08:50.669Z,10.31438127090301
2022-09-10T15:15:17.431Z,9.896321070234114
2022-09-10T15:21:41.542Z,10.73913043478261
2022-09-10T15:33:42.758Z,13.301003344481606
2022-09-10T15:40:06.282Z,11.2876254180602
2022-09-10T15:55:11.155Z,10.832775919732441
2022-09-10T16:01:40.719Z,10.521739130434783
2022-09-10T16:08:07.102Z,10.709030100334449
2022-09-10T16:14:32.962Z,10.160535117056856
2022-09-10T16:21:53.179Z,10.341137123745819
2022-09-10T16:28:16.164Z,11.17056856187291
2022-09-10T16:34:39.058Z,11.822742474916389
2022-09-10T16:48:39.154Z,12.414715719063546
2022-09-10T16:55:02.071Z,10.561872909698996
2022-09-10T17:09:02.184Z,12.096989966555183
2022-09-10T17:18:36.078Z,13.17056856187291
2022-09-10T17:25:17.672Z,13.966555183946488
2022-09-10T17:31:44.212Z,15.294314381270903
2022-09-10T17:38:10.476Z,14.68561872909699
2022-09-10T17:44:36.097Z,14.956521739130435
2022-09-10T17:51:26.347Z,15.193979933110368
2022-09-10T17:58:39.487Z,16.19732441471572
2022-09-10T18:11:17.101Z,15.053511705685619
2022-09-10T18:22:03.851Z,14.301003344481606
2022-09-10T18:28:37.991Z,14.595317725752508
2022-09-10T18:35:04.597Z,13.755852842809364
2022-09-10T18:41:31.110Z,13.665551839464882
2022-09-10T18:47:58.944Z,13.806020066889632
2022-09-10T18:54:26.283Z,14.023411371237458
2022-09-10T19:00:58.389Z,14.565217391304348
2022-09-10T19:07:33.288Z,14.953177257525084
2022-09-10T19:14:11.848Z,16.464882943143813
2022-09-10T19:20:48.032Z,15.03010033444816
2022-09-10T19:27:46.753Z,14.642140468227424
2022-09-10T19:38:05.757Z,14.956521739130435
2022-09-10T19:45:43.367Z,16.347826086956523
2022-09-10T19:52:17.453Z,17.698996655518396
2022-09-10T19:58:55.983Z,16.97993311036789
2022-09-10T20:05:24.362Z,16.57190635451505
2022-09-10T20:11:53.588Z,15.979933110367893
2022-09-10T20:18:24.182Z,16.555183946488295
2022-09-10T20:31:09.683Z,17.347826086956523
2022-09-10T20:37:43.685Z,18.5752508361204
2022-09-10T20:44:18.577Z,18.74916387959866
2022-09-10T20:50:56.233Z,18.648829431438127
2022-09-10T21:02:03.851Z,20.06354515050167
2022-09-10T21:08:39.912Z,22.54515050167224
2022-09-10T21:15:21.871Z,21.367892976588628
2022-09-10T21:32:02.533Z,18.692307692307693
2022-09-10T21:38:43.503Z,18.52173913043478
2022-09-10T21:45:16.613Z,19.62876254180602
2022-09-10T21:51:50.859Z,19.42809364548495
2022-09-10T22:01:43.888Z,20.237458193979933
2022-09-10T22:08:16.953Z,19.93979933110368
2022-09-10T22:19:28.373Z,19.016722408026755
2022-09-10T22:30:28.022Z,18.782608695652176
2022-09-10T22:38:37.147Z,18.043478260869566
2022-09-10T22:45:02.476Z,17.645484949832777
2022-09-10T22:53:55.355Z,16.91304347826087
2022-09-10T23:00:20.793Z,16.79933110367893
2022-09-10T23:06:46.729Z,18.100334448160535
2022-09-10T23:13:12.882Z,18.337792642140467
2022-09-10T23:23:16.825Z,17.695652173913043
2022-09-10T23:29:43.810Z,17.361204013377925
2022-09-10T23:36:10.251Z,17.05351170568562
2022-09-10T23:43:23.219Z,17.71571906354515
2022-09-10T23:54:17.858Z,17.97993311036789
